sensor_id;sensor_type;location;lat;lon;timestamp;P1;durP1;ratioP1;P2;durP2;ratioP2
48361;SDS011;34510;51.888;5.670;2023-07-31T00:00:11;898.67;;;809.00;;
48361;SDS011;34510;51.888;5.670;2023-07-31T00:05:13;898.38;;;811.42;;
48361;SDS011;34510;51.888;5.670;2023-07-31T00:10:15;892.30;;;803.67;;
48361;SDS011;34510;51.888;5.670;2023-07-31T00:15:17;915.20;;;826.45;;
48361;SDS011;34510;51.888;5.670;2023-07-31T00:20:19;917.25;;;829.38;;
48361;SDS011;34510;51.888;5.670;2023-07-31T00:25:21;899.58;;;811.72;;
48361;SDS011;34510;51.888;5.670;2023-07-31T00:30:23;913.28;;;824.08;;
48361;SDS011;34510;51.888;5.670;2023-07-31T00:35:28;906.58;;;817.63;;
48361;SDS011;34510;51.888;5.670;2023-07-31T00:40:33;918.55;;;828.33;;
48361;SDS011;34510;51.888;5.670;2023-07-31T00:45:35;916.92;;;825.67;;
48361;SDS011;34510;51.888;5.670;2023-07-31T00:50:37;933.80;;;841.78;;
48361;SDS011;34510;51.888;5.670;2023-07-31T00:55:40;911.88;;;825.13;;
48361;SDS011;34510;51.888;5.670;2023-07-31T01:00:42;924.47;;;836.35;;
48361;SDS011;34510;51.888;5.670;2023-07-31T01:06:04;924.10;;;838.05;;
48361;SDS011;34510;51.888;5.670;2023-07-31T01:16:14;932.63;;;848.55;;
48361;SDS011;34510;51.888;5.670;2023-07-31T01:21:28;920.35;;;837.10;;
48361;SDS011;34510;51.888;5.670;2023-07-31T01:26:33;933.83;;;850.00;;
48361;SDS011;34510;51.888;5.670;2023-07-31T01:31:35;926.55;;;843.30;;
48361;SDS011;34510;51.888;5.670;2023-07-31T01:36:38;916.47;;;831.95;;
48361;SDS011;34510;51.888;5.670;2023-07-31T01:41:40;923.40;;;840.28;;
48361;SDS011;34510;51.888;5.670;2023-07-31T01:46:42;925.78;;;842.80;;
48361;SDS011;34510;51.888;5.670;2023-07-31T01:51:44;928.75;;;843.65;;
48361;SDS011;34510;51.888;5.670;2023-07-31T01:56:46;926.38;;;841.40;;
48361;SDS011;34510;51.888;5.670;2023-07-31T02:01:48;913.05;;;827.42;;
48361;SDS011;34510;51.888;5.670;2023-07-31T02:06:50;921.10;;;836.45;;
48361;SDS011;34510;51.888;5.670;2023-07-31T02:11:52;924.35;;;840.00;;
48361;SDS011;34510;51.888;5.670;2023-07-31T02:16:54;919.97;;;833.10;;
48361;SDS011;34510;51.888;5.670;2023-07-31T02:21:56;926.10;;;838.78;;
48361;SDS011;34510;51.888;5.670;2023-07-31T02:26:58;928.67;;;840.60;;
48361;SDS011;34510;51.888;5.670;2023-07-31T02:32:00;931.95;;;844.22;;
48361;SDS011;34510;51.888;5.670;2023-07-31T02:37:02;923.20;;;837.45;;
48361;SDS011;34510;51.888;5.670;2023-07-31T02:42:04;909.95;;;825.42;;
48361;SDS011;34510;51.888;5.670;2023-07-31T02:47:06;920.88;;;834.92;;
48361;SDS011;34510;51.888;5.670;2023-07-31T02:52:08;922.70;;;834.85;;
48361;SDS011;34510;51.888;5.670;2023-07-31T02:57:10;916.40;;;830.03;;
48361;SDS011;34510;51.888;5.670;2023-07-31T03:02:12;917.75;;;831.28;;
48361;SDS011;34510;51.888;5.670;2023-07-31T03:07:14;922.42;;;835.70;;
48361;SDS011;34510;51.888;5.670;2023-07-31T03:12:16;923.70;;;837.63;;
48361;SDS011;34510;51.888;5.670;2023-07-31T03:17:18;910.88;;;824.30;;
48361;SDS011;34510;51.888;5.670;2023-07-31T03:22:20;923.22;;;836.78;;
48361;SDS011;34510;51.888;5.670;2023-07-31T03:27:22;927.88;;;842.03;;
48361;SDS011;34510;51.888;5.670;2023-07-31T03:32:24;909.00;;;821.80;;
48361;SDS011;34510;51.888;5.670;2023-07-31T03:37:27;917.47;;;831.67;;
48361;SDS011;34510;51.888;5.670;2023-07-31T03:42:29;924.92;;;838.70;;
48361;SDS011;34510;51.888;5.670;2023-07-31T03:47:31;911.53;;;825.70;;
48361;SDS011;34510;51.888;5.670;2023-07-31T03:52:33;929.08;;;842.78;;
48361;SDS011;34510;51.888;5.670;2023-07-31T03:57:35;916.92;;;831.03;;
48361;SDS011;34510;51.888;5.670;2023-07-31T04:02:36;911.10;;;827.95;;
48361;SDS011;34510;51.888;5.670;2023-07-31T04:07:38;922.10;;;837.50;;
48361;SDS011;34510;51.888;5.670;2023-07-31T04:12:40;926.33;;;842.22;;
48361;SDS011;34510;51.888;5.670;2023-07-31T04:17:42;918.95;;;834.15;;
48361;SDS011;34510;51.888;5.670;2023-07-31T04:22:44;913.78;;;827.03;;
48361;SDS011;34510;51.888;5.670;2023-07-31T04:27:46;917.35;;;830.88;;
48361;SDS011;34510;51.888;5.670;2023-07-31T04:32:48;907.53;;;825.63;;
48361;SDS011;34510;51.888;5.670;2023-07-31T04:37:49;915.95;;;832.95;;
48361;SDS011;34510;51.888;5.670;2023-07-31T04:42:51;915.38;;;832.63;;
48361;SDS011;34510;51.888;5.670;2023-07-31T04:47:53;911.15;;;823.13;;
48361;SDS011;34510;51.888;5.670;2023-07-31T04:52:55;925.30;;;837.60;;
48361;SDS011;34510;51.888;5.670;2023-07-31T04:57:58;919.88;;;832.90;;
48361;SDS011;34510;51.888;5.670;2023-07-31T05:03:00;904.60;;;819.35;;
48361;SDS011;34510;51.888;5.670;2023-07-31T05:08:02;908.47;;;823.90;;
48361;SDS011;34510;51.888;5.670;2023-07-31T05:13:04;916.35;;;829.88;;
48361;SDS011;34510;51.888;5.670;2023-07-31T05:18:06;915.92;;;831.13;;
48361;SDS011;34510;51.888;5.670;2023-07-31T05:23:08;916.75;;;829.30;;
48361;SDS011;34510;51.888;5.670;2023-07-31T05:28:11;906.15;;;822.22;;
48361;SDS011;34510;51.888;5.670;2023-07-31T05:33:13;916.17;;;831.75;;
48361;SDS011;34510;51.888;5.670;2023-07-31T05:38:15;917.25;;;832.97;;
48361;SDS011;34510;51.888;5.670;2023-07-31T05:43:17;901.78;;;812.83;;
48361;SDS011;34510;51.888;5.670;2023-07-31T05:48:19;916.80;;;825.92;;
48361;SDS011;34510;51.888;5.670;2023-07-31T05:53:21;905.22;;;815.30;;
48361;SDS011;34510;51.888;5.670;2023-07-31T05:58:23;904.47;;;815.03;;
48361;SDS011;34510;51.888;5.670;2023-07-31T06:03:25;899.35;;;810.42;;
48361;SDS011;34510;51.888;5.670;2023-07-31T06:08:26;913.53;;;825.40;;
48361;SDS011;34510;51.888;5.670;2023-07-31T06:13:28;909.13;;;823.05;;
48361;SDS011;34510;51.888;5.670;2023-07-31T06:18:31;902.08;;;814.67;;
48361;SDS011;34510;51.888;5.670;2023-07-31T06:23:33;910.08;;;823.88;;
48361;SDS011;34510;51.888;5.670;2023-07-31T06:28:35;913.95;;;829.25;;
48361;SDS011;34510;51.888;5.670;2023-07-31T06:33:37;913.90;;;831.90;;
48361;SDS011;34510;51.888;5.670;2023-07-31T06:38:39;901.97;;;822.35;;
48361;SDS011;34510;51.888;5.670;2023-07-31T06:43:41;908.63;;;826.75;;
48361;SDS011;34510;51.888;5.670;2023-07-31T06:48:42;909.30;;;831.25;;
48361;SDS011;34510;51.888;5.670;2023-07-31T06:53:44;913.08;;;835.13;;
48361;SDS011;34510;51.888;5.670;2023-07-31T06:58:47;910.30;;;827.63;;
48361;SDS011;34510;51.888;5.670;2023-07-31T07:03:49;912.22;;;830.58;;
48361;SDS011;34510;51.888;5.670;2023-07-31T07:08:52;917.30;;;835.65;;
48361;SDS011;34510;51.888;5.670;2023-07-31T07:13:54;912.42;;;830.28;;
48361;SDS011;34510;51.888;5.670;2023-07-31T07:18:56;916.30;;;834.90;;
48361;SDS011;34510;51.888;5.670;2023-07-31T07:24:05;920.53;;;838.75;;
48361;SDS011;34510;51.888;5.670;2023-07-31T07:29:07;921.78;;;840.40;;
48361;SDS011;34510;51.888;5.670;2023-07-31T07:34:09;923.25;;;840.55;;
48361;SDS011;34510;51.888;5.670;2023-07-31T07:39:11;914.20;;;831.22;;
48361;SDS011;34510;51.888;5.670;2023-07-31T07:44:13;933.03;;;843.72;;
48361;SDS011;34510;51.888;5.670;2023-07-31T07:49:15;930.10;;;843.40;;
48361;SDS011;34510;51.888;5.670;2023-07-31T07:54:17;937.17;;;852.33;;
48361;SDS011;34510;51.888;5.670;2023-07-31T07:59:19;932.95;;;845.60;;
48361;SDS011;34510;51.888;5.670;2023-07-31T08:04:21;940.33;;;850.13;;
48361;SDS011;34510;51.888;5.670;2023-07-31T08:09:23;931.50;;;840.20;;
48361;SDS011;34510;51.888;5.670;2023-07-31T08:14:25;939.53;;;847.17;;
48361;SDS011;34510;51.888;5.670;2023-07-31T08:19:27;934.88;;;843.78;;
48361;SDS011;34510;51.888;5.670;2023-07-31T08:24:29;932.08;;;841.05;;
48361;SDS011;34510;51.888;5.670;2023-07-31T08:29:31;944.92;;;852.22;;
48361;SDS011;34510;51.888;5.670;2023-07-31T08:34:32;932.72;;;843.20;;
48361;SDS011;34510;51.888;5.670;2023-07-31T08:39:34;957.67;;;866.38;;
48361;SDS011;34510;51.888;5.670;2023-07-31T08:44:36;948.05;;;858.22;;
48361;SDS011;34510;51.888;5.670;2023-07-31T08:49:39;945.75;;;853.22;;
48361;SDS011;34510;51.888;5.670;2023-07-31T08:54:42;946.30;;;861.38;;
48361;SDS011;34510;51.888;5.670;2023-07-31T08:59:44;946.67;;;862.97;;
48361;SDS011;34510;51.888;5.670;2023-07-31T09:04:46;945.35;;;860.35;;
48361;SDS011;34510;51.888;5.670;2023-07-31T09:09:48;953.53;;;871.85;;
48361;SDS011;34510;51.888;5.670;2023-07-31T09:14:50;926.33;;;851.28;;
48361;SDS011;34510;51.888;5.670;2023-07-31T09:19:52;918.33;;;846.55;;
48361;SDS011;34510;51.888;5.670;2023-07-31T09:24:54;915.50;;;844.28;;
48361;SDS011;34510;51.888;5.670;2023-07-31T09:29:59;916.90;;;846.53;;
48361;SDS011;34510;51.888;5.670;2023-07-31T09:35:01;905.20;;;836.20;;
48361;SDS011;34510;51.888;5.670;2023-07-31T09:40:04;893.00;;;825.38;;
48361;SDS011;34510;51.888;5.670;2023-07-31T09:45:09;959.92;;;879.85;;
48361;SDS011;34510;51.888;5.670;2023-07-31T09:50:11;953.67;;;877.45;;
48361;SDS011;34510;51.888;5.670;2023-07-31T09:55:13;968.00;;;888.58;;
48361;SDS011;34510;51.888;5.670;2023-07-31T10:00:16;967.88;;;889.88;;
48361;SDS011;34510;51.888;5.670;2023-07-31T10:05:19;965.72;;;888.78;;
48361;SDS011;34510;51.888;5.670;2023-07-31T10:10:21;976.10;;;896.38;;
48361;SDS011;34510;51.888;5.670;2023-07-31T10:15:23;981.30;;;903.13;;
48361;SDS011;34510;51.888;5.670;2023-07-31T10:20:26;980.40;;;902.92;;
48361;SDS011;34510;51.888;5.670;2023-07-31T10:25:29;991.92;;;912.55;;
48361;SDS011;34510;51.888;5.670;2023-07-31T10:30:32;951.63;;;878.40;;
48361;SDS011;34510;51.888;5.670;2023-07-31T10:35:35;939.70;;;868.08;;
48361;SDS011;34510;51.888;5.670;2023-07-31T10:40:38;946.70;;;874.67;;
48361;SDS011;34510;51.888;5.670;2023-07-31T10:45:42;950.63;;;877.95;;
48361;SDS011;34510;51.888;5.670;2023-07-31T10:55:49;898.47;;;830.53;;
48361;SDS011;34510;51.888;5.670;2023-07-31T11:00:56;912.40;;;843.60;;
48361;SDS011;34510;51.888;5.670;2023-07-31T11:06:00;874.93;;;809.17;;
48361;SDS011;34510;51.888;5.670;2023-07-31T11:11:05;878.03;;;812.15;;
48361;SDS011;34510;51.888;5.670;2023-07-31T11:16:08;861.08;;;796.40;;
48361;SDS011;34510;51.888;5.670;2023-07-31T11:21:23;895.15;;;827.35;;
48361;SDS011;34510;51.888;5.670;2023-07-31T11:26:25;893.88;;;826.53;;
48361;SDS011;34510;51.888;5.670;2023-07-31T11:31:27;939.60;;;868.17;;
48361;SDS011;34510;51.888;5.670;2023-07-31T11:36:29;965.38;;;891.03;;
48361;SDS011;34510;51.888;5.670;2023-07-31T11:41:31;890.80;;;823.67;;
48361;SDS011;34510;51.888;5.670;2023-07-31T11:46:33;964.38;;;890.58;;
48361;SDS011;34510;51.888;5.670;2023-07-31T11:51:35;913.10;;;844.13;;
48361;SDS011;34510;51.888;5.670;2023-07-31T11:56:37;911.45;;;842.33;;
48361;SDS011;34510;51.888;5.670;2023-07-31T12:01:40;951.13;;;878.33;;
48361;SDS011;34510;51.888;5.670;2023-07-31T12:06:42;969.05;;;895.38;;
48361;SDS011;34510;51.888;5.670;2023-07-31T12:11:45;929.70;;;859.30;;
48361;SDS011;34510;51.888;5.670;2023-07-31T12:16:47;967.83;;;893.38;;
48361;SDS011;34510;51.888;5.670;2023-07-31T12:21:49;867.78;;;802.03;;
48361;SDS011;34510;51.888;5.670;2023-07-31T12:26:51;866.42;;;801.08;;
48361;SDS011;34510;51.888;5.670;2023-07-31T12:31:54;856.35;;;791.72;;
48361;SDS011;34510;51.888;5.670;2023-07-31T12:36:56;874.95;;;808.67;;
48361;SDS011;34510;51.888;5.670;2023-07-31T12:41:57;873.63;;;807.60;;
48361;SDS011;34510;51.888;5.670;2023-07-31T12:46:59;913.10;;;844.20;;
48361;SDS011;34510;51.888;5.670;2023-07-31T12:52:01;916.63;;;847.45;;
48361;SDS011;34510;51.888;5.670;2023-07-31T12:57:03;879.75;;;812.85;;
48361;SDS011;34510;51.888;5.670;2023-07-31T13:02:06;873.75;;;807.85;;
48361;SDS011;34510;51.888;5.670;2023-07-31T13:07:08;904.05;;;835.95;;
48361;SDS011;34510;51.888;5.670;2023-07-31T13:12:09;905.63;;;836.95;;
48361;SDS011;34510;51.888;5.670;2023-07-31T13:17:11;916.28;;;847.20;;
48361;SDS011;34510;51.888;5.670;2023-07-31T13:22:13;906.85;;;838.58;;
48361;SDS011;34510;51.888;5.670;2023-07-31T13:27:15;892.78;;;825.63;;
48361;SDS011;34510;51.888;5.670;2023-07-31T13:32:23;918.72;;;849.13;;
48361;SDS011;34510;51.888;5.670;2023-07-31T13:37:25;940.70;;;869.15;;
48361;SDS011;34510;51.888;5.670;2023-07-31T13:42:26;946.33;;;873.88;;
48361;SDS011;34510;51.888;5.670;2023-07-31T13:47:30;945.47;;;873.60;;
48361;SDS011;34510;51.888;5.670;2023-07-31T13:52:32;916.05;;;846.70;;
48361;SDS011;34510;51.888;5.670;2023-07-31T13:57:34;929.97;;;859.38;;
48361;SDS011;34510;51.888;5.670;2023-07-31T14:02:36;876.80;;;811.00;;
48361;SDS011;34510;51.888;5.670;2023-07-31T14:07:38;930.47;;;860.35;;
48361;SDS011;34510;51.888;5.670;2023-07-31T14:12:40;943.05;;;871.70;;
48361;SDS011;34510;51.888;5.670;2023-07-31T14:17:44;904.47;;;836.45;;
48361;SDS011;34510;51.888;5.670;2023-07-31T14:22:46;878.78;;;812.20;;
48361;SDS011;34510;51.888;5.670;2023-07-31T14:27:48;874.25;;;808.53;;
48361;SDS011;34510;51.888;5.670;2023-07-31T14:32:50;860.20;;;795.53;;
48361;SDS011;34510;51.888;5.670;2023-07-31T14:37:52;893.42;;;825.95;;
48361;SDS011;34510;51.888;5.670;2023-07-31T14:42:54;809.70;;;748.95;;
48361;SDS011;34510;51.888;5.670;2023-07-31T14:47:57;866.30;;;801.50;;
48361;SDS011;34510;51.888;5.670;2023-07-31T14:52:59;837.08;;;774.33;;
48361;SDS011;34510;51.888;5.670;2023-07-31T14:58:01;879.08;;;812.70;;
48361;SDS011;34510;51.888;5.670;2023-07-31T15:03:04;829.65;;;767.30;;
48361;SDS011;34510;51.888;5.670;2023-07-31T15:08:06;880.55;;;814.53;;
48361;SDS011;34510;51.888;5.670;2023-07-31T15:13:08;816.22;;;755.40;;
48361;SDS011;34510;51.888;5.670;2023-07-31T15:18:10;857.17;;;793.10;;
48361;SDS011;34510;51.888;5.670;2023-07-31T15:23:12;852.72;;;788.70;;
48361;SDS011;34510;51.888;5.670;2023-07-31T15:28:14;824.95;;;763.50;;
48361;SDS011;34510;51.888;5.670;2023-07-31T15:33:16;815.28;;;754.25;;
48361;SDS011;34510;51.888;5.670;2023-07-31T15:38:18;806.15;;;745.80;;
48361;SDS011;34510;51.888;5.670;2023-07-31T15:43:20;808.53;;;748.08;;
48361;SDS011;34510;51.888;5.670;2023-07-31T15:48:22;832.80;;;770.50;;
48361;SDS011;34510;51.888;5.670;2023-07-31T15:53:24;803.60;;;743.80;;
48361;SDS011;34510;51.888;5.670;2023-07-31T15:58:26;809.72;;;748.55;;
48361;SDS011;34510;51.888;5.670;2023-07-31T16:03:28;788.28;;;729.53;;
48361;SDS011;34510;51.888;5.670;2023-07-31T16:08:30;801.00;;;741.45;;
48361;SDS011;34510;51.888;5.670;2023-07-31T16:13:32;846.20;;;782.92;;
48361;SDS011;34510;51.888;5.670;2023-07-31T16:18:34;854.08;;;790.30;;
48361;SDS011;34510;51.888;5.670;2023-07-31T16:23:36;844.88;;;782.03;;
48361;SDS011;34510;51.888;5.670;2023-07-31T16:28:37;838.03;;;775.58;;
48361;SDS011;34510;51.888;5.670;2023-07-31T16:33:39;849.28;;;786.22;;
48361;SDS011;34510;51.888;5.670;2023-07-31T16:38:41;845.42;;;782.75;;
48361;SDS011;34510;51.888;5.670;2023-07-31T16:43:43;894.30;;;826.97;;
48361;SDS011;34510;51.888;5.670;2023-07-31T16:48:45;912.17;;;843.30;;
48361;SDS011;34510;51.888;5.670;2023-07-31T16:53:47;911.92;;;843.03;;
48361;SDS011;34510;51.888;5.670;2023-07-31T16:58:50;900.90;;;833.08;;
48361;SDS011;34510;51.888;5.670;2023-07-31T17:03:52;915.80;;;846.42;;
48361;SDS011;34510;51.888;5.670;2023-07-31T17:08:54;888.00;;;821.55;;
48361;SDS011;34510;51.888;5.670;2023-07-31T17:13:56;908.75;;;839.92;;
48361;SDS011;34510;51.888;5.670;2023-07-31T17:18:58;884.30;;;818.28;;
48361;SDS011;34510;51.888;5.670;2023-07-31T17:24:00;888.97;;;822.42;;
48361;SDS011;34510;51.888;5.670;2023-07-31T17:29:03;920.17;;;850.42;;
48361;SDS011;34510;51.888;5.670;2023-07-31T17:34:05;903.28;;;835.00;;
48361;SDS011;34510;51.888;5.670;2023-07-31T17:39:07;897.38;;;829.47;;
48361;SDS011;34510;51.888;5.670;2023-07-31T17:44:09;877.83;;;812.45;;
48361;SDS011;34510;51.888;5.670;2023-07-31T17:49:11;882.00;;;816.13;;
48361;SDS011;34510;51.888;5.670;2023-07-31T17:54:12;917.30;;;848.10;;
48361;SDS011;34510;51.888;5.670;2023-07-31T17:59:15;898.60;;;830.60;;
48361;SDS011;34510;51.888;5.670;2023-07-31T18:04:16;906.22;;;837.42;;
48361;SDS011;34510;51.888;5.670;2023-07-31T18:09:19;921.17;;;850.90;;
48361;SDS011;34510;51.888;5.670;2023-07-31T18:14:20;917.50;;;847.92;;
48361;SDS011;34510;51.888;5.670;2023-07-31T18:19:26;914.25;;;845.05;;
48361;SDS011;34510;51.888;5.670;2023-07-31T18:24:28;911.95;;;842.75;;
48361;SDS011;34510;51.888;5.670;2023-07-31T18:29:30;923.83;;;854.25;;
48361;SDS011;34510;51.888;5.670;2023-07-31T18:34:32;906.80;;;838.45;;
48361;SDS011;34510;51.888;5.670;2023-07-31T18:39:34;891.13;;;823.88;;
48361;SDS011;34510;51.888;5.670;2023-07-31T18:44:36;911.22;;;842.10;;
48361;SDS011;34510;51.888;5.670;2023-07-31T18:49:38;904.58;;;836.13;;
48361;SDS011;34510;51.888;5.670;2023-07-31T18:54:40;922.50;;;852.58;;
48361;SDS011;34510;51.888;5.670;2023-07-31T18:59:41;911.95;;;843.35;;
48361;SDS011;34510;51.888;5.670;2023-07-31T19:04:43;883.70;;;817.22;;
48361;SDS011;34510;51.888;5.670;2023-07-31T19:09:45;902.65;;;834.80;;
48361;SDS011;34510;51.888;5.670;2023-07-31T19:14:56;928.47;;;857.30;;
48361;SDS011;34510;51.888;5.670;2023-07-31T19:19:58;904.88;;;836.67;;
48361;SDS011;34510;51.888;5.670;2023-07-31T19:25:00;933.38;;;862.25;;
48361;SDS011;34510;51.888;5.670;2023-07-31T19:30:02;923.30;;;853.38;;
48361;SDS011;34510;51.888;5.670;2023-07-31T19:35:04;892.22;;;825.30;;
48361;SDS011;34510;51.888;5.670;2023-07-31T19:40:06;913.72;;;844.88;;
48361;SDS011;34510;51.888;5.670;2023-07-31T19:45:09;900.38;;;832.45;;
48361;SDS011;34510;51.888;5.670;2023-07-31T19:50:10;923.85;;;853.97;;
48361;SDS011;34510;51.888;5.670;2023-07-31T19:55:12;909.10;;;841.08;;
48361;SDS011;34510;51.888;5.670;2023-07-31T20:00:14;904.00;;;835.40;;
48361;SDS011;34510;51.888;5.670;2023-07-31T20:05:19;855.63;;;791.58;;
48361;SDS011;34510;51.888;5.670;2023-07-31T20:10:59;901.38;;;833.13;;
48361;SDS011;34510;51.888;5.670;2023-07-31T20:16:02;915.78;;;846.10;;
48361;SDS011;34510;51.888;5.670;2023-07-31T20:21:05;919.25;;;849.25;;
48361;SDS011;34510;51.888;5.670;2023-07-31T20:26:07;932.70;;;861.70;;
48361;SDS011;34510;51.888;5.670;2023-07-31T20:31:09;900.17;;;832.05;;
48361;SDS011;34510;51.888;5.670;2023-07-31T20:36:11;905.60;;;837.05;;
48361;SDS011;34510;51.888;5.670;2023-07-31T20:41:13;930.17;;;858.63;;
48361;SDS011;34510;51.888;5.670;2023-07-31T20:46:15;927.40;;;856.05;;
48361;SDS011;34510;51.888;5.670;2023-07-31T20:51:21;921.88;;;850.75;;
48361;SDS011;34510;51.888;5.670;2023-07-31T20:56:22;905.38;;;835.85;;
48361;SDS011;34510;51.888;5.670;2023-07-31T21:01:24;897.55;;;829.38;;
48361;SDS011;34510;51.888;5.670;2023-07-31T21:06:27;890.00;;;822.42;;
48361;SDS011;34510;51.888;5.670;2023-07-31T21:11:29;880.03;;;813.42;;
48361;SDS011;34510;51.888;5.670;2023-07-31T21:16:31;886.53;;;818.92;;
48361;SDS011;34510;51.888;5.670;2023-07-31T21:21:33;898.53;;;830.08;;
48361;SDS011;34510;51.888;5.670;2023-07-31T21:26:35;894.58;;;825.88;;
48361;SDS011;34510;51.888;5.670;2023-07-31T21:31:37;910.30;;;840.85;;
48361;SDS011;34510;51.888;5.670;2023-07-31T21:36:39;916.33;;;845.58;;
48361;SDS011;34510;51.888;5.670;2023-07-31T21:41:41;918.65;;;847.35;;
48361;SDS011;34510;51.888;5.670;2023-07-31T21:46:43;912.70;;;842.28;;
48361;SDS011;34510;51.888;5.670;2023-07-31T21:51:45;929.78;;;857.45;;
48361;SDS011;34510;51.888;5.670;2023-07-31T21:56:47;932.08;;;859.03;;
48361;SDS011;34510;51.888;5.670;2023-07-31T22:01:49;928.38;;;856.67;;
48361;SDS011;34510;51.888;5.670;2023-07-31T22:06:51;923.80;;;851.10;;
48361;SDS011;34510;51.888;5.670;2023-07-31T22:11:53;925.35;;;852.58;;
48361;SDS011;34510;51.888;5.670;2023-07-31T22:16:54;933.22;;;858.90;;
48361;SDS011;34510;51.888;5.670;2023-07-31T22:21:57;935.45;;;861.45;;
48361;SDS011;34510;51.888;5.670;2023-07-31T22:26:58;924.78;;;851.47;;
48361;SDS011;34510;51.888;5.670;2023-07-31T22:32:00;935.97;;;860.65;;
48361;SDS011;34510;51.888;5.670;2023-07-31T22:37:02;939.20;;;864.63;;
48361;SDS011;34510;51.888;5.670;2023-07-31T22:42:04;937.28;;;862.70;;
48361;SDS011;34510;51.888;5.670;2023-07-31T22:47:06;931.88;;;856.95;;
48361;SDS011;34510;51.888;5.670;2023-07-31T22:52:08;930.78;;;856.17;;
48361;SDS011;34510;51.888;5.670;2023-07-31T22:57:11;949.60;;;872.00;;
48361;SDS011;34510;51.888;5.670;2023-07-31T23:02:12;936.30;;;860.92;;
48361;SDS011;34510;51.888;5.670;2023-07-31T23:07:14;953.95;;;876.83;;
48361;SDS011;34510;51.888;5.670;2023-07-31T23:12:17;942.08;;;865.78;;
48361;SDS011;34510;51.888;5.670;2023-07-31T23:17:18;936.97;;;862.05;;
48361;SDS011;34510;51.888;5.670;2023-07-31T23:22:20;947.88;;;870.13;;
48361;SDS011;34510;51.888;5.670;2023-07-31T23:27:22;945.58;;;869.10;;
48361;SDS011;34510;51.888;5.670;2023-07-31T23:32:24;943.63;;;865.53;;
48361;SDS011;34510;51.888;5.670;2023-07-31T23:37:26;951.67;;;873.35;;
48361;SDS011;34510;51.888;5.670;2023-07-31T23:42:28;943.30;;;865.88;;
48361;SDS011;34510;51.888;5.670;2023-07-31T23:47:32;942.60;;;865.70;;
48361;SDS011;34510;51.888;5.670;2023-07-31T23:52:34;960.30;;;882.20;;
48361;SDS011;34510;51.888;5.670;2023-07-31T23:57:37;952.45;;;876.15;;
